Orbital elements of ARIANE 44L DEB
| Launched | 28 October 1991 |
| Flight ended | – |
| Launch site | Europe's Spaceport, Kourou, French Guiana |
| Owner | France |
| NORAD ID | 48419 |
| Date fetched |
Epoch osculation |
Inc. [°] |
Ecc. | RA asc node [hr] |
Arg Peri. [°] |
Mean anom [°] |
Mean motion [rev/day] |
Abs. mag |
| Date fetched |
Epoch osculation |
Inc. [°] |
Ecc. | RA asc node [hr] |
Arg Peri. [°] |
Mean anom [°] |
Mean motion [rev/day] |
Abs. mag |
| 2026 May 08 17:57 | 2026 May 05 12:28:18 | 7.0425 | 0.63537 | 15.1131 | 316.0957 | 8.2877 | 3.36141 | – |
| 2026 May 07 17:58 | 2026 May 05 12:28:18 | 7.0425 | 0.63537 | 15.1131 | 316.0957 | 8.2877 | 3.36141 | – |
| 2026 May 06 17:57 | 2026 May 05 12:28:18 | 7.0425 | 0.63537 | 15.1131 | 316.0957 | 8.2877 | 3.36141 | – |
| 2026 May 05 17:57 | 2026 May 05 12:28:18 | 7.0425 | 0.63537 | 15.1131 | 316.0957 | 8.2877 | 3.36141 | – |
| 2026 May 04 17:57 | 2026 Apr 25 09:45:56 | 7.0517 | 0.63550 | 15.5415 | 303.4208 | 8.2877 | 3.36141 | – |
| 2026 May 03 17:57 | 2026 Apr 25 09:45:56 | 7.0517 | 0.63550 | 15.5415 | 303.4208 | 8.2877 | 3.36141 | – |
| 2026 May 02 17:57 | 2026 Apr 25 09:45:56 | 7.0517 | 0.63550 | 15.5415 | 303.4208 | 8.2877 | 3.36141 | – |
| 2026 May 01 17:56 | 2026 Apr 25 09:45:56 | 7.0517 | 0.63550 | 15.5415 | 303.4208 | 8.2877 | 3.36141 | – |
| 2026 Apr 30 17:56 | 2026 Apr 25 09:45:56 | 7.0517 | 0.63550 | 15.5415 | 303.4208 | 8.2877 | 3.36141 | – |
| 2026 Apr 29 17:57 | 2026 Apr 21 12:57:59 | 7.0576 | 0.63558 | 15.7061 | 298.5564 | 8.2877 | 3.36141 | – |
| 2026 Apr 28 17:56 | 2026 Apr 21 12:57:59 | 7.0576 | 0.63558 | 15.7061 | 298.5564 | 8.2877 | 3.36141 | – |
| 2026 Apr 27 17:58 | 2026 Apr 21 12:57:59 | 7.0576 | 0.63558 | 15.7061 | 298.5564 | 8.2877 | 3.36141 | – |
| 2026 Apr 26 17:58 | 2026 Apr 21 12:57:59 | 7.0576 | 0.63558 | 15.7061 | 298.5564 | 8.2877 | 3.36141 | – |
| 2026 Apr 25 17:58 | 2026 Apr 21 12:57:59 | 7.0576 | 0.63558 | 15.7061 | 298.5564 | 8.2877 | 3.36141 | – |
| 2026 Apr 24 17:59 | 2026 Apr 21 12:57:59 | 7.0576 | 0.63558 | 15.7061 | 298.5564 | 8.2877 | 3.36141 | – |
| 2026 Apr 23 17:57 | 2026 Apr 18 20:43:14 | 7.0593 | 0.63567 | 15.8184 | 295.2107 | 8.2877 | 3.36141 | – |
| 2026 Apr 22 17:57 | 2026 Apr 18 20:43:14 | 7.0593 | 0.63567 | 15.8184 | 295.2107 | 8.2877 | 3.36141 | – |
| 2026 Apr 21 17:57 | 2026 Apr 18 20:43:14 | 7.0593 | 0.63567 | 15.8184 | 295.2107 | 8.2877 | 3.36141 | – |
| 2026 Apr 20 17:57 | 2026 Apr 18 20:43:14 | 7.0593 | 0.63567 | 15.8184 | 295.2107 | 8.2877 | 3.36141 | – |
| 2026 Apr 19 17:58 | 2026 Apr 18 20:43:14 | 7.0593 | 0.63567 | 15.8184 | 295.2107 | 8.2877 | 3.36141 | – |
| 2026 Apr 18 17:56 | 2026 Apr 10 12:50:50 | 7.0700 | 0.63583 | 16.1712 | 284.7498 | 8.2877 | 3.36141 | – |
| 2026 Apr 16 17:57 | 2026 Apr 10 12:50:50 | 7.0700 | 0.63583 | 16.1712 | 284.7498 | 8.2877 | 3.36141 | – |
| 2026 Apr 14 17:57 | 2026 Apr 10 12:50:50 | 7.0700 | 0.63583 | 16.1712 | 284.7498 | 8.2877 | 3.36141 | – |
| 2026 Apr 13 17:57 | 2026 Apr 10 12:50:50 | 7.0700 | 0.63583 | 16.1712 | 284.7498 | 8.2877 | 3.36141 | – |
| 2026 Apr 12 17:57 | 2026 Apr 06 23:11:25 | 7.0699 | 0.63587 | 16.3235 | 280.2604 | 8.2877 | 3.36141 | – |
| 2026 Apr 11 17:57 | 2026 Apr 06 23:11:25 | 7.0699 | 0.63587 | 16.3235 | 280.2604 | 8.2877 | 3.36141 | – |